sensor_id;sensor_type;location;lat;lon;timestamp;P1;durP1;ratioP1;P2;durP2;ratioP2
6117;SDS011;3089;48.202;11.510;2023-06-19T00:00:13;12.63;;;6.90;;
6117;SDS011;3089;48.202;11.510;2023-06-19T00:02:42;10.57;;;6.63;;
6117;SDS011;3089;48.202;11.510;2023-06-19T00:05:11;15.73;;;6.90;;
6117;SDS011;3089;48.202;11.510;2023-06-19T00:07:39;9.00;;;6.17;;
6117;SDS011;3089;48.202;11.510;2023-06-19T00:10:09;11.80;;;6.60;;
6117;SDS011;3089;48.202;11.510;2023-06-19T00:12:36;10.13;;;6.63;;
6117;SDS011;3089;48.202;11.510;2023-06-19T00:15:05;10.97;;;6.40;;
6117;SDS011;3089;48.202;11.510;2023-06-19T00:17:35;14.63;;;6.40;;
6117;SDS011;3089;48.202;11.510;2023-06-19T00:20:04;9.53;;;6.60;;
6117;SDS011;3089;48.202;11.510;2023-06-19T00:22:32;9.43;;;6.20;;
6117;SDS011;3089;48.202;11.510;2023-06-19T00:25:00;11.30;;;5.60;;
6117;SDS011;3089;48.202;11.510;2023-06-19T00:27:30;10.90;;;6.70;;
6117;SDS011;3089;48.202;11.510;2023-06-19T00:29:58;11.77;;;5.90;;
6117;SDS011;3089;48.202;11.510;2023-06-19T00:32:28;10.23;;;5.87;;
6117;SDS011;3089;48.202;11.510;2023-06-19T00:34:56;11.50;;;6.10;;
6117;SDS011;3089;48.202;11.510;2023-06-19T00:37:27;8.73;;;5.93;;
6117;SDS011;3089;48.202;11.510;2023-06-19T00:39:58;9.60;;;5.87;;
6117;SDS011;3089;48.202;11.510;2023-06-19T00:42:26;10.97;;;6.23;;
6117;SDS011;3089;48.202;11.510;2023-06-19T00:44:55;11.10;;;6.47;;
6117;SDS011;3089;48.202;11.510;2023-06-19T00:47:23;9.63;;;6.00;;
6117;SDS011;3089;48.202;11.510;2023-06-19T00:49:52;11.10;;;6.50;;
6117;SDS011;3089;48.202;11.510;2023-06-19T00:52:20;8.03;;;5.83;;
6117;SDS011;3089;48.202;11.510;2023-06-19T00:54:47;8.70;;;5.87;;
6117;SDS011;3089;48.202;11.510;2023-06-19T00:57:15;10.47;;;6.13;;
6117;SDS011;3089;48.202;11.510;2023-06-19T00:59:43;8.17;;;4.90;;
6117;SDS011;3089;48.202;11.510;2023-06-19T01:02:13;10.90;;;6.67;;
6117;SDS011;3089;48.202;11.510;2023-06-19T01:04:43;10.40;;;6.20;;
6117;SDS011;3089;48.202;11.510;2023-06-19T01:07:12;9.70;;;5.90;;
6117;SDS011;3089;48.202;11.510;2023-06-19T01:09:44;9.47;;;6.30;;
6117;SDS011;3089;48.202;11.510;2023-06-19T01:12:16;8.50;;;6.33;;
6117;SDS011;3089;48.202;11.510;2023-06-19T01:14:50;9.43;;;6.00;;
6117;SDS011;3089;48.202;11.510;2023-06-19T01:17:23;10.20;;;5.90;;
6117;SDS011;3089;48.202;11.510;2023-06-19T01:19:52;10.30;;;6.50;;
6117;SDS011;3089;48.202;11.510;2023-06-19T01:22:26;10.47;;;6.10;;
6117;SDS011;3089;48.202;11.510;2023-06-19T01:24:54;10.17;;;6.30;;
6117;SDS011;3089;48.202;11.510;2023-06-19T01:27:23;9.53;;;6.63;;
6117;SDS011;3089;48.202;11.510;2023-06-19T01:29:51;11.40;;;6.90;;
6117;SDS011;3089;48.202;11.510;2023-06-19T01:32:22;11.83;;;6.70;;
6117;SDS011;3089;48.202;11.510;2023-06-19T01:34:55;14.60;;;7.30;;
6117;SDS011;3089;48.202;11.510;2023-06-19T01:37:26;15.63;;;7.10;;
6117;SDS011;3089;48.202;11.510;2023-06-19T01:39:56;12.23;;;6.57;;
6117;SDS011;3089;48.202;11.510;2023-06-19T01:42:25;9.23;;;5.90;;
6117;SDS011;3089;48.202;11.510;2023-06-19T01:44:54;11.67;;;6.60;;
6117;SDS011;3089;48.202;11.510;2023-06-19T01:47:22;8.90;;;5.20;;
6117;SDS011;3089;48.202;11.510;2023-06-19T01:49:50;12.90;;;6.40;;
6117;SDS011;3089;48.202;11.510;2023-06-19T01:52:18;9.70;;;6.70;;
6117;SDS011;3089;48.202;11.510;2023-06-19T01:54:47;9.43;;;6.63;;
6117;SDS011;3089;48.202;11.510;2023-06-19T01:57:15;12.37;;;7.00;;
6117;SDS011;3089;48.202;11.510;2023-06-19T01:59:43;22.80;;;9.50;;
6117;SDS011;3089;48.202;11.510;2023-06-19T02:02:11;18.97;;;9.73;;
6117;SDS011;3089;48.202;11.510;2023-06-19T02:04:39;19.20;;;10.40;;
6117;SDS011;3089;48.202;11.510;2023-06-19T02:07:07;13.90;;;8.13;;
6117;SDS011;3089;48.202;11.510;2023-06-19T02:09:35;13.30;;;8.40;;
6117;SDS011;3089;48.202;11.510;2023-06-19T02:12:07;12.37;;;6.53;;
6117;SDS011;3089;48.202;11.510;2023-06-19T02:14:35;11.33;;;7.00;;
6117;SDS011;3089;48.202;11.510;2023-06-19T02:17:03;11.23;;;6.80;;
6117;SDS011;3089;48.202;11.510;2023-06-19T02:19:31;9.30;;;6.80;;
6117;SDS011;3089;48.202;11.510;2023-06-19T02:21:59;11.43;;;7.90;;
6117;SDS011;3089;48.202;11.510;2023-06-19T02:24:27;13.10;;;7.33;;
6117;SDS011;3089;48.202;11.510;2023-06-19T02:26:55;13.20;;;7.80;;
6117;SDS011;3089;48.202;11.510;2023-06-19T02:29:24;9.83;;;6.77;;
6117;SDS011;3089;48.202;11.510;2023-06-19T02:31:52;23.83;;;7.50;;
6117;SDS011;3089;48.202;11.510;2023-06-19T02:34:20;14.40;;;8.30;;
6117;SDS011;3089;48.202;11.510;2023-06-19T02:36:50;11.90;;;7.20;;
6117;SDS011;3089;48.202;11.510;2023-06-19T02:39:18;13.33;;;7.40;;
6117;SDS011;3089;48.202;11.510;2023-06-19T02:41:46;11.37;;;6.90;;
6117;SDS011;3089;48.202;11.510;2023-06-19T02:44:13;11.40;;;7.17;;
6117;SDS011;3089;48.202;11.510;2023-06-19T02:46:42;12.43;;;6.90;;
6117;SDS011;3089;48.202;11.510;2023-06-19T02:49:10;9.50;;;6.73;;
6117;SDS011;3089;48.202;11.510;2023-06-19T02:51:38;10.00;;;6.70;;
6117;SDS011;3089;48.202;11.510;2023-06-19T02:54:07;11.83;;;6.93;;
6117;SDS011;3089;48.202;11.510;2023-06-19T02:56:36;13.23;;;6.40;;
6117;SDS011;3089;48.202;11.510;2023-06-19T02:59:05;11.30;;;7.30;;
6117;SDS011;3089;48.202;11.510;2023-06-19T03:01:33;11.53;;;7.33;;
6117;SDS011;3089;48.202;11.510;2023-06-19T03:04:02;11.20;;;6.70;;
6117;SDS011;3089;48.202;11.510;2023-06-19T03:06:30;12.07;;;6.57;;
6117;SDS011;3089;48.202;11.510;2023-06-19T03:08:59;10.67;;;6.70;;
6117;SDS011;3089;48.202;11.510;2023-06-19T03:11:27;9.43;;;6.63;;
6117;SDS011;3089;48.202;11.510;2023-06-19T03:13:56;10.63;;;6.97;;
6117;SDS011;3089;48.202;11.510;2023-06-19T03:16:24;9.17;;;6.50;;
6117;SDS011;3089;48.202;11.510;2023-06-19T03:18:52;10.67;;;7.30;;
6117;SDS011;3089;48.202;11.510;2023-06-19T03:21:21;11.13;;;7.47;;
6117;SDS011;3089;48.202;11.510;2023-06-19T03:23:49;11.30;;;7.17;;
6117;SDS011;3089;48.202;11.510;2023-06-19T03:26:17;10.37;;;6.87;;
6117;SDS011;3089;48.202;11.510;2023-06-19T03:28:45;9.80;;;7.10;;
6117;SDS011;3089;48.202;11.510;2023-06-19T03:31:14;10.80;;;7.13;;
6117;SDS011;3089;48.202;11.510;2023-06-19T03:33:42;10.40;;;6.03;;
6117;SDS011;3089;48.202;11.510;2023-06-19T03:36:10;12.20;;;7.50;;
6117;SDS011;3089;48.202;11.510;2023-06-19T03:38:39;10.40;;;6.60;;
6117;SDS011;3089;48.202;11.510;2023-06-19T03:41:07;8.93;;;6.60;;
6117;SDS011;3089;48.202;11.510;2023-06-19T03:43:35;11.27;;;6.07;;
6117;SDS011;3089;48.202;11.510;2023-06-19T03:46:03;14.60;;;6.43;;
6117;SDS011;3089;48.202;11.510;2023-06-19T03:48:31;11.60;;;7.03;;
6117;SDS011;3089;48.202;11.510;2023-06-19T03:50:59;10.37;;;6.83;;
6117;SDS011;3089;48.202;11.510;2023-06-19T03:53:27;10.43;;;6.13;;
6117;SDS011;3089;48.202;11.510;2023-06-19T03:55:56;10.13;;;6.70;;
6117;SDS011;3089;48.202;11.510;2023-06-19T03:58:24;10.87;;;6.50;;
6117;SDS011;3089;48.202;11.510;2023-06-19T04:00:51;13.33;;;6.43;;
6117;SDS011;3089;48.202;11.510;2023-06-19T04:03:19;9.43;;;6.70;;
6117;SDS011;3089;48.202;11.510;2023-06-19T04:05:47;12.17;;;6.73;;
6117;SDS011;3089;48.202;11.510;2023-06-19T04:08:15;10.73;;;6.50;;
6117;SDS011;3089;48.202;11.510;2023-06-19T04:10:43;9.20;;;6.80;;
6117;SDS011;3089;48.202;11.510;2023-06-19T04:13:12;12.07;;;7.10;;
6117;SDS011;3089;48.202;11.510;2023-06-19T04:15:40;10.47;;;6.97;;
6117;SDS011;3089;48.202;11.510;2023-06-19T04:18:13;15.90;;;7.63;;
6117;SDS011;3089;48.202;11.510;2023-06-19T04:20:40;13.67;;;7.40;;
6117;SDS011;3089;48.202;11.510;2023-06-19T04:23:08;19.33;;;7.03;;
6117;SDS011;3089;48.202;11.510;2023-06-19T04:25:36;22.63;;;7.37;;
6117;SDS011;3089;48.202;11.510;2023-06-19T04:28:04;15.13;;;8.10;;
6117;SDS011;3089;48.202;11.510;2023-06-19T04:30:33;9.70;;;7.70;;
6117;SDS011;3089;48.202;11.510;2023-06-19T04:33:01;12.83;;;7.87;;
6117;SDS011;3089;48.202;11.510;2023-06-19T04:35:30;12.97;;;7.70;;
6117;SDS011;3089;48.202;11.510;2023-06-19T04:37:58;13.17;;;7.67;;
6117;SDS011;3089;48.202;11.510;2023-06-19T04:40:27;15.33;;;8.33;;
6117;SDS011;3089;48.202;11.510;2023-06-19T04:42:55;12.53;;;7.77;;
6117;SDS011;3089;48.202;11.510;2023-06-19T04:45:22;13.43;;;7.10;;
6117;SDS011;3089;48.202;11.510;2023-06-19T04:47:52;12.77;;;7.00;;
6117;SDS011;3089;48.202;11.510;2023-06-19T04:50:20;12.30;;;6.80;;
6117;SDS011;3089;48.202;11.510;2023-06-19T04:52:49;11.10;;;7.70;;
6117;SDS011;3089;48.202;11.510;2023-06-19T04:55:18;13.00;;;7.93;;
6117;SDS011;3089;48.202;11.510;2023-06-19T04:57:46;15.90;;;7.67;;
6117;SDS011;3089;48.202;11.510;2023-06-19T05:00:14;12.63;;;7.17;;
6117;SDS011;3089;48.202;11.510;2023-06-19T05:02:45;14.37;;;7.00;;
6117;SDS011;3089;48.202;11.510;2023-06-19T05:05:15;11.23;;;6.87;;
6117;SDS011;3089;48.202;11.510;2023-06-19T05:07:44;18.47;;;8.60;;
6117;SDS011;3089;48.202;11.510;2023-06-19T05:10:12;14.43;;;7.50;;
6117;SDS011;3089;48.202;11.510;2023-06-19T05:12:40;10.30;;;6.90;;
6117;SDS011;3089;48.202;11.510;2023-06-19T05:15:08;10.57;;;6.80;;
6117;SDS011;3089;48.202;11.510;2023-06-19T05:17:37;10.63;;;6.67;;
6117;SDS011;3089;48.202;11.510;2023-06-19T05:20:06;13.30;;;8.00;;
6117;SDS011;3089;48.202;11.510;2023-06-19T05:22:36;11.87;;;7.20;;
6117;SDS011;3089;48.202;11.510;2023-06-19T05:25:04;10.80;;;7.00;;
6117;SDS011;3089;48.202;11.510;2023-06-19T05:27:32;9.83;;;6.13;;
6117;SDS011;3089;48.202;11.510;2023-06-19T05:30:00;10.20;;;6.90;;
6117;SDS011;3089;48.202;11.510;2023-06-19T05:32:28;11.60;;;6.17;;
6117;SDS011;3089;48.202;11.510;2023-06-19T05:34:56;9.50;;;6.20;;
6117;SDS011;3089;48.202;11.510;2023-06-19T05:37:24;10.30;;;6.70;;
6117;SDS011;3089;48.202;11.510;2023-06-19T05:39:54;16.10;;;6.87;;
6117;SDS011;3089;48.202;11.510;2023-06-19T05:42:23;11.70;;;6.63;;
6117;SDS011;3089;48.202;11.510;2023-06-19T05:44:51;14.70;;;6.97;;
6117;SDS011;3089;48.202;11.510;2023-06-19T05:47:19;10.37;;;6.50;;
6117;SDS011;3089;48.202;11.510;2023-06-19T05:49:47;13.30;;;5.83;;
6117;SDS011;3089;48.202;11.510;2023-06-19T05:52:15;8.90;;;5.63;;
6117;SDS011;3089;48.202;11.510;2023-06-19T05:54:43;9.77;;;6.00;;
6117;SDS011;3089;48.202;11.510;2023-06-19T05:57:12;7.80;;;5.50;;
6117;SDS011;3089;48.202;11.510;2023-06-19T05:59:42;9.53;;;6.07;;
6117;SDS011;3089;48.202;11.510;2023-06-19T06:02:10;8.20;;;5.50;;
6117;SDS011;3089;48.202;11.510;2023-06-19T06:04:37;9.90;;;6.07;;
6117;SDS011;3089;48.202;11.510;2023-06-19T06:07:05;10.30;;;5.80;;
6117;SDS011;3089;48.202;11.510;2023-06-19T06:09:34;9.80;;;5.73;;
6117;SDS011;3089;48.202;11.510;2023-06-19T06:12:02;9.90;;;5.63;;
6117;SDS011;3089;48.202;11.510;2023-06-19T06:14:31;9.00;;;5.47;;
6117;SDS011;3089;48.202;11.510;2023-06-19T06:16:59;8.53;;;5.80;;
6117;SDS011;3089;48.202;11.510;2023-06-19T06:19:27;9.30;;;5.93;;
6117;SDS011;3089;48.202;11.510;2023-06-19T06:21:58;13.23;;;6.30;;
6117;SDS011;3089;48.202;11.510;2023-06-19T06:24:26;9.60;;;6.00;;
6117;SDS011;3089;48.202;11.510;2023-06-19T06:26:54;12.33;;;6.20;;
6117;SDS011;3089;48.202;11.510;2023-06-19T06:29:22;10.03;;;6.00;;
6117;SDS011;3089;48.202;11.510;2023-06-19T06:31:51;14.90;;;5.73;;
6117;SDS011;3089;48.202;11.510;2023-06-19T06:34:19;10.00;;;5.97;;
6117;SDS011;3089;48.202;11.510;2023-06-19T06:36:47;7.00;;;4.57;;
6117;SDS011;3089;48.202;11.510;2023-06-19T06:39:31;11.10;;;5.83;;
6117;SDS011;3089;48.202;11.510;2023-06-19T06:41:59;13.07;;;5.47;;
6117;SDS011;3089;48.202;11.510;2023-06-19T06:44:27;9.10;;;5.40;;
6117;SDS011;3089;48.202;11.510;2023-06-19T06:46:56;8.37;;;5.43;;
6117;SDS011;3089;48.202;11.510;2023-06-19T06:49:24;8.90;;;4.23;;
6117;SDS011;3089;48.202;11.510;2023-06-19T06:51:52;15.60;;;6.10;;
6117;SDS011;3089;48.202;11.510;2023-06-19T06:54:22;10.67;;;5.40;;
6117;SDS011;3089;48.202;11.510;2023-06-19T06:56:50;8.67;;;5.07;;
6117;SDS011;3089;48.202;11.510;2023-06-19T06:59:22;8.60;;;5.23;;
6117;SDS011;3089;48.202;11.510;2023-06-19T07:01:50;9.43;;;5.40;;
6117;SDS011;3089;48.202;11.510;2023-06-19T07:04:19;12.10;;;5.40;;
6117;SDS011;3089;48.202;11.510;2023-06-19T07:06:47;15.63;;;5.10;;
6117;SDS011;3089;48.202;11.510;2023-06-19T07:09:15;12.90;;;4.80;;
6117;SDS011;3089;48.202;11.510;2023-06-19T07:11:43;10.10;;;4.97;;
6117;SDS011;3089;48.202;11.510;2023-06-19T07:14:11;8.13;;;5.40;;
6117;SDS011;3089;48.202;11.510;2023-06-19T07:16:39;9.63;;;5.23;;
6117;SDS011;3089;48.202;11.510;2023-06-19T07:19:07;10.50;;;5.13;;
6117;SDS011;3089;48.202;11.510;2023-06-19T07:21:36;8.23;;;5.70;;
6117;SDS011;3089;48.202;11.510;2023-06-19T07:24:04;13.00;;;5.23;;
6117;SDS011;3089;48.202;11.510;2023-06-19T07:26:32;10.13;;;5.50;;
6117;SDS011;3089;48.202;11.510;2023-06-19T07:29:00;7.80;;;5.07;;
6117;SDS011;3089;48.202;11.510;2023-06-19T07:31:28;9.00;;;5.13;;
6117;SDS011;3089;48.202;11.510;2023-06-19T07:33:56;7.13;;;4.70;;
6117;SDS011;3089;48.202;11.510;2023-06-19T07:36:24;8.70;;;4.87;;
6117;SDS011;3089;48.202;11.510;2023-06-19T07:38:54;8.10;;;5.10;;
6117;SDS011;3089;48.202;11.510;2023-06-19T07:41:23;7.97;;;4.60;;
6117;SDS011;3089;48.202;11.510;2023-06-19T07:43:50;10.37;;;5.20;;
6117;SDS011;3089;48.202;11.510;2023-06-19T07:46:18;7.90;;;4.50;;
6117;SDS011;3089;48.202;11.510;2023-06-19T07:48:46;7.77;;;4.30;;
6117;SDS011;3089;48.202;11.510;2023-06-19T07:51:14;9.60;;;4.23;;
6117;SDS011;3089;48.202;11.510;2023-06-19T07:53:42;8.60;;;4.40;;
6117;SDS011;3089;48.202;11.510;2023-06-19T07:56:11;9.63;;;3.93;;
6117;SDS011;3089;48.202;11.510;2023-06-19T07:58:39;5.80;;;3.90;;
6117;SDS011;3089;48.202;11.510;2023-06-19T08:01:07;8.47;;;3.90;;
6117;SDS011;3089;48.202;11.510;2023-06-19T08:03:36;9.67;;;4.70;;
6117;SDS011;3089;48.202;11.510;2023-06-19T08:06:04;6.83;;;4.00;;
6117;SDS011;3089;48.202;11.510;2023-06-19T08:08:32;8.70;;;4.20;;
6117;SDS011;3089;48.202;11.510;2023-06-19T08:11:00;8.00;;;4.80;;
6117;SDS011;3089;48.202;11.510;2023-06-19T08:13:29;7.13;;;4.20;;
6117;SDS011;3089;48.202;11.510;2023-06-19T08:15:57;8.40;;;3.40;;
6117;SDS011;3089;48.202;11.510;2023-06-19T08:18:25;5.30;;;3.40;;
6117;SDS011;3089;48.202;11.510;2023-06-19T08:20:54;5.10;;;2.97;;
6117;SDS011;3089;48.202;11.510;2023-06-19T08:23:22;6.43;;;3.70;;
6117;SDS011;3089;48.202;11.510;2023-06-19T08:25:50;8.83;;;4.23;;
6117;SDS011;3089;48.202;11.510;2023-06-19T08:28:18;5.57;;;3.57;;
6117;SDS011;3089;48.202;11.510;2023-06-19T08:30:47;7.90;;;4.13;;
6117;SDS011;3089;48.202;11.510;2023-06-19T08:33:15;6.47;;;3.90;;
6117;SDS011;3089;48.202;11.510;2023-06-19T08:35:43;6.00;;;3.47;;
6117;SDS011;3089;48.202;11.510;2023-06-19T08:38:12;7.33;;;3.10;;
6117;SDS011;3089;48.202;11.510;2023-06-19T08:40:40;4.77;;;2.60;;
6117;SDS011;3089;48.202;11.510;2023-06-19T08:43:08;6.03;;;2.40;;
6117;SDS011;3089;48.202;11.510;2023-06-19T08:45:36;4.73;;;2.70;;
6117;SDS011;3089;48.202;11.510;2023-06-19T08:48:06;3.47;;;2.13;;
6117;SDS011;3089;48.202;11.510;2023-06-19T08:50:35;5.23;;;2.50;;
6117;SDS011;3089;48.202;11.510;2023-06-19T08:53:02;5.23;;;2.87;;
6117;SDS011;3089;48.202;11.510;2023-06-19T08:55:30;5.73;;;3.10;;
6117;SDS011;3089;48.202;11.510;2023-06-19T08:57:58;6.30;;;2.97;;
6117;SDS011;3089;48.202;11.510;2023-06-19T09:00:26;5.80;;;2.90;;
6117;SDS011;3089;48.202;11.510;2023-06-19T09:02:58;4.83;;;2.77;;
6117;SDS011;3089;48.202;11.510;2023-06-19T09:05:41;5.57;;;2.97;;
6117;SDS011;3089;48.202;11.510;2023-06-19T09:08:17;5.03;;;2.93;;
6117;SDS011;3089;48.202;11.510;2023-06-19T09:10:54;6.10;;;3.10;;
6117;SDS011;3089;48.202;11.510;2023-06-19T09:13:23;6.97;;;3.40;;
6117;SDS011;3089;48.202;11.510;2023-06-19T09:15:57;11.57;;;3.27;;
6117;SDS011;3089;48.202;11.510;2023-06-19T09:18:26;7.13;;;4.30;;
6117;SDS011;3089;48.202;11.510;2023-06-19T09:20:55;7.00;;;3.47;;
6117;SDS011;3089;48.202;11.510;2023-06-19T09:23:23;6.60;;;3.90;;
6117;SDS011;3089;48.202;11.510;2023-06-19T09:25:51;8.13;;;4.10;;
6117;SDS011;3089;48.202;11.510;2023-06-19T09:28:21;7.83;;;4.40;;
6117;SDS011;3089;48.202;11.510;2023-06-19T09:30:55;9.37;;;5.73;;
6117;SDS011;3089;48.202;11.510;2023-06-19T09:33:24;6.97;;;4.50;;
6117;SDS011;3089;48.202;11.510;2023-06-19T09:35:53;8.73;;;3.50;;
6117;SDS011;3089;48.202;11.510;2023-06-19T09:38:24;6.60;;;4.10;;
6117;SDS011;3089;48.202;11.510;2023-06-19T09:40:53;9.57;;;4.40;;
6117;SDS011;3089;48.202;11.510;2023-06-19T09:43:23;6.37;;;3.83;;
6117;SDS011;3089;48.202;11.510;2023-06-19T09:45:54;8.50;;;3.90;;
6117;SDS011;3089;48.202;11.510;2023-06-19T09:48:25;6.40;;;4.20;;
6117;SDS011;3089;48.202;11.510;2023-06-19T09:50:59;5.70;;;4.10;;
6117;SDS011;3089;48.202;11.510;2023-06-19T09:53:29;5.17;;;3.30;;
6117;SDS011;3089;48.202;11.510;2023-06-19T09:55:59;7.20;;;4.17;;
6117;SDS011;3089;48.202;11.510;2023-06-19T09:58:27;5.33;;;3.63;;
6117;SDS011;3089;48.202;11.510;2023-06-19T10:00:55;10.97;;;4.20;;
6117;SDS011;3089;48.202;11.510;2023-06-19T10:03:29;7.87;;;3.40;;
6117;SDS011;3089;48.202;11.510;2023-06-19T10:06:00;8.40;;;3.53;;
6117;SDS011;3089;48.202;11.510;2023-06-19T10:08:29;5.10;;;3.70;;
6117;SDS011;3089;48.202;11.510;2023-06-19T10:10:58;7.10;;;3.17;;
6117;SDS011;3089;48.202;11.510;2023-06-19T10:13:33;5.90;;;3.43;;
6117;SDS011;3089;48.202;11.510;2023-06-19T10:16:02;9.63;;;2.90;;
6117;SDS011;3089;48.202;11.510;2023-06-19T10:18:31;4.67;;;2.80;;
6117;SDS011;3089;48.202;11.510;2023-06-19T10:21:01;5.60;;;3.27;;
6117;SDS011;3089;48.202;11.510;2023-06-19T10:23:28;5.40;;;2.70;;
6117;SDS011;3089;48.202;11.510;2023-06-19T10:26:05;6.30;;;2.97;;
6117;SDS011;3089;48.202;11.510;2023-06-19T10:28:33;5.60;;;2.97;;
6117;SDS011;3089;48.202;11.510;2023-06-19T10:31:02;5.43;;;2.87;;
6117;SDS011;3089;48.202;11.510;2023-06-19T10:33:32;4.20;;;2.53;;
6117;SDS011;3089;48.202;11.510;2023-06-19T10:36:12;4.77;;;2.80;;
6117;SDS011;3089;48.202;11.510;2023-06-19T10:38:41;4.60;;;2.50;;
6117;SDS011;3089;48.202;11.510;2023-06-19T10:41:14;6.33;;;2.63;;
6117;SDS011;3089;48.202;11.510;2023-06-19T10:43:51;4.47;;;2.63;;
6117;SDS011;3089;48.202;11.510;2023-06-19T10:46:20;4.43;;;1.90;;
6117;SDS011;3089;48.202;11.510;2023-06-19T10:48:49;3.60;;;1.93;;
6117;SDS011;3089;48.202;11.510;2023-06-19T10:51:19;5.33;;;1.97;;
6117;SDS011;3089;48.202;11.510;2023-06-19T10:53:47;4.17;;;2.53;;
6117;SDS011;3089;48.202;11.510;2023-06-19T10:56:15;4.10;;;2.43;;
6117;SDS011;3089;48.202;11.510;2023-06-19T10:58:47;4.40;;;2.30;;
6117;SDS011;3089;48.202;11.510;2023-06-19T11:01:15;4.70;;;2.00;;
6117;SDS011;3089;48.202;11.510;2023-06-19T11:03:43;3.97;;;2.13;;
6117;SDS011;3089;48.202;11.510;2023-06-19T11:06:10;4.93;;;2.23;;
6117;SDS011;3089;48.202;11.510;2023-06-19T11:08:40;4.13;;;2.33;;
6117;SDS011;3089;48.202;11.510;2023-06-19T11:11:07;5.10;;;2.30;;
6117;SDS011;3089;48.202;11.510;2023-06-19T11:13:35;5.07;;;2.07;;
6117;SDS011;3089;48.202;11.510;2023-06-19T11:16:03;4.13;;;2.10;;
6117;SDS011;3089;48.202;11.510;2023-06-19T11:18:31;4.80;;;2.07;;
6117;SDS011;3089;48.202;11.510;2023-06-19T11:21:00;4.63;;;2.03;;
6117;SDS011;3089;48.202;11.510;2023-06-19T11:23:30;4.40;;;2.10;;
6117;SDS011;3089;48.202;11.510;2023-06-19T11:26:03;5.00;;;2.10;;
6117;SDS011;3089;48.202;11.510;2023-06-19T11:28:31;10.77;;;2.40;;
6117;SDS011;3089;48.202;11.510;2023-06-19T11:30:59;4.73;;;2.50;;
6117;SDS011;3089;48.202;11.510;2023-06-19T11:33:29;5.03;;;2.30;;
6117;SDS011;3089;48.202;11.510;2023-06-19T11:36:00;11.53;;;2.77;;
6117;SDS011;3089;48.202;11.510;2023-06-19T11:38:29;3.93;;;2.33;;
6117;SDS011;3089;48.202;11.510;2023-06-19T11:40:56;4.20;;;2.50;;
6117;SDS011;3089;48.202;11.510;2023-06-19T11:43:26;4.50;;;2.20;;
6117;SDS011;3089;48.202;11.510;2023-06-19T11:46:00;4.73;;;2.60;;
6117;SDS011;3089;48.202;11.510;2023-06-19T11:48:29;9.10;;;2.47;;
6117;SDS011;3089;48.202;11.510;2023-06-19T11:50:57;4.30;;;2.53;;
6117;SDS011;3089;48.202;11.510;2023-06-19T11:53:25;4.30;;;2.30;;
6117;SDS011;3089;48.202;11.510;2023-06-19T11:55:53;4.90;;;2.40;;
6117;SDS011;3089;48.202;11.510;2023-06-19T11:58:22;4.67;;;2.60;;
6117;SDS011;3089;48.202;11.510;2023-06-19T12:00:53;6.37;;;2.43;;
6117;SDS011;3089;48.202;11.510;2023-06-19T12:03:22;4.10;;;2.17;;
6117;SDS011;3089;48.202;11.510;2023-06-19T12:05:50;4.70;;;2.53;;
6117;SDS011;3089;48.202;11.510;2023-06-19T12:08:18;4.60;;;2.40;;
6117;SDS011;3089;48.202;11.510;2023-06-19T12:10:48;3.70;;;2.20;;
6117;SDS011;3089;48.202;11.510;2023-06-19T12:13:16;4.40;;;2.40;;
6117;SDS011;3089;48.202;11.510;2023-06-19T12:15:43;9.27;;;2.40;;
6117;SDS011;3089;48.202;11.510;2023-06-19T12:18:13;3.47;;;2.07;;
6117;SDS011;3089;48.202;11.510;2023-06-19T12:20:41;4.33;;;2.10;;
6117;SDS011;3089;48.202;11.510;2023-06-19T12:23:08;6.30;;;2.57;;
6117;SDS011;3089;48.202;11.510;2023-06-19T12:25:36;3.87;;;2.33;;
6117;SDS011;3089;48.202;11.510;2023-06-19T12:28:04;4.60;;;2.87;;
6117;SDS011;3089;48.202;11.510;2023-06-19T12:30:34;4.10;;;2.30;;
6117;SDS011;3089;48.202;11.510;2023-06-19T12:33:03;4.40;;;2.77;;
6117;SDS011;3089;48.202;11.510;2023-06-19T12:35:33;4.23;;;2.70;;
6117;SDS011;3089;48.202;11.510;2023-06-19T12:38:01;6.70;;;2.53;;
6117;SDS011;3089;48.202;11.510;2023-06-19T12:40:32;4.83;;;2.83;;
6117;SDS011;3089;48.202;11.510;2023-06-19T12:43:00;3.83;;;2.40;;
6117;SDS011;3089;48.202;11.510;2023-06-19T12:45:28;5.87;;;2.63;;
6117;SDS011;3089;48.202;11.510;2023-06-19T12:47:57;3.90;;;2.57;;
6117;SDS011;3089;48.202;11.510;2023-06-19T12:50:25;4.80;;;2.60;;
6117;SDS011;3089;48.202;11.510;2023-06-19T12:52:54;4.20;;;2.33;;
6117;SDS011;3089;48.202;11.510;2023-06-19T12:55:22;6.40;;;2.77;;
6117;SDS011;3089;48.202;11.510;2023-06-19T12:57:50;4.70;;;3.07;;
6117;SDS011;3089;48.202;11.510;2023-06-19T13:00:18;6.53;;;2.93;;
6117;SDS011;3089;48.202;11.510;2023-06-19T13:02:46;4.93;;;2.97;;
6117;SDS011;3089;48.202;11.510;2023-06-19T13:05:14;4.20;;;2.67;;
6117;SDS011;3089;48.202;11.510;2023-06-19T13:07:42;4.63;;;2.57;;
6117;SDS011;3089;48.202;11.510;2023-06-19T13:10:11;4.40;;;2.77;;
6117;SDS011;3089;48.202;11.510;2023-06-19T13:12:39;4.50;;;2.90;;
6117;SDS011;3089;48.202;11.510;2023-06-19T13:15:07;5.63;;;3.10;;
6117;SDS011;3089;48.202;11.510;2023-06-19T13:17:36;4.70;;;2.73;;
6117;SDS011;3089;48.202;11.510;2023-06-19T13:20:04;4.17;;;2.50;;
6117;SDS011;3089;48.202;11.510;2023-06-19T13:22:33;4.40;;;2.60;;
6117;SDS011;3089;48.202;11.510;2023-06-19T13:25:01;5.40;;;2.97;;
6117;SDS011;3089;48.202;11.510;2023-06-19T13:27:30;5.03;;;3.13;;
6117;SDS011;3089;48.202;11.510;2023-06-19T13:29:59;3.97;;;2.70;;
6117;SDS011;3089;48.202;11.510;2023-06-19T13:32:28;4.87;;;2.80;;
6117;SDS011;3089;48.202;11.510;2023-06-19T13:34:56;5.43;;;2.77;;
6117;SDS011;3089;48.202;11.510;2023-06-19T13:37:24;5.10;;;2.70;;
6117;SDS011;3089;48.202;11.510;2023-06-19T13:39:52;4.80;;;3.20;;
6117;SDS011;3089;48.202;11.510;2023-06-19T13:42:19;4.07;;;2.67;;
6117;SDS011;3089;48.202;11.510;2023-06-19T13:44:49;4.97;;;2.83;;
6117;SDS011;3089;48.202;11.510;2023-06-19T13:47:17;3.83;;;2.30;;
6117;SDS011;3089;48.202;11.510;2023-06-19T13:49:44;4.77;;;3.10;;
6117;SDS011;3089;48.202;11.510;2023-06-19T13:52:12;8.33;;;2.80;;
6117;SDS011;3089;48.202;11.510;2023-06-19T13:54:40;5.70;;;2.73;;
6117;SDS011;3089;48.202;11.510;2023-06-19T13:57:08;5.33;;;2.93;;
6117;SDS011;3089;48.202;11.510;2023-06-19T13:59:36;4.57;;;2.50;;
6117;SDS011;3089;48.202;11.510;2023-06-19T14:02:06;4.00;;;2.30;;
6117;SDS011;3089;48.202;11.510;2023-06-19T14:04:34;4.50;;;2.90;;
6117;SDS011;3089;48.202;11.510;2023-06-19T14:07:02;5.83;;;3.70;;
6117;SDS011;3089;48.202;11.510;2023-06-19T14:09:31;6.30;;;3.07;;
6117;SDS011;3089;48.202;11.510;2023-06-19T14:11:59;4.60;;;2.80;;
6117;SDS011;3089;48.202;11.510;2023-06-19T14:14:27;5.87;;;3.10;;
6117;SDS011;3089;48.202;11.510;2023-06-19T14:16:55;6.13;;;2.93;;
6117;SDS011;3089;48.202;11.510;2023-06-19T14:19:25;6.20;;;2.97;;
6117;SDS011;3089;48.202;11.510;2023-06-19T14:21:54;5.00;;;2.20;;
6117;SDS011;3089;48.202;11.510;2023-06-19T14:24:22;4.17;;;2.73;;
6117;SDS011;3089;48.202;11.510;2023-06-19T14:26:54;6.00;;;3.13;;
6117;SDS011;3089;48.202;11.510;2023-06-19T14:29:21;5.67;;;3.60;;
6117;SDS011;3089;48.202;11.510;2023-06-19T14:31:50;4.40;;;2.60;;
6117;SDS011;3089;48.202;11.510;2023-06-19T14:34:18;3.93;;;2.57;;
6117;SDS011;3089;48.202;11.510;2023-06-19T14:36:48;6.00;;;2.77;;
6117;SDS011;3089;48.202;11.510;2023-06-19T14:39:16;4.80;;;2.73;;
6117;SDS011;3089;48.202;11.510;2023-06-19T14:41:43;7.13;;;2.90;;
6117;SDS011;3089;48.202;11.510;2023-06-19T14:44:12;5.00;;;3.00;;
6117;SDS011;3089;48.202;11.510;2023-06-19T14:46:40;6.13;;;3.07;;
6117;SDS011;3089;48.202;11.510;2023-06-19T14:49:09;5.40;;;2.77;;
6117;SDS011;3089;48.202;11.510;2023-06-19T14:51:39;5.30;;;2.67;;
6117;SDS011;3089;48.202;11.510;2023-06-19T14:54:08;6.03;;;3.23;;
6117;SDS011;3089;48.202;11.510;2023-06-19T14:56:36;6.00;;;2.70;;
6117;SDS011;3089;48.202;11.510;2023-06-19T14:59:03;8.97;;;3.60;;
6117;SDS011;3089;48.202;11.510;2023-06-19T15:01:31;4.43;;;2.67;;
6117;SDS011;3089;48.202;11.510;2023-06-19T15:03:59;5.87;;;2.80;;